sensor_id;sensor_type;location;lat;lon;timestamp;temperature;humidity
2967;DHT22;1493;51.496;7.210;2023-05-07T00:00:46;15.80;99.90
2967;DHT22;1493;51.496;7.210;2023-05-07T00:03:13;15.80;99.90
2967;DHT22;1493;51.496;7.210;2023-05-07T00:05:40;15.90;99.90
2967;DHT22;1493;51.496;7.210;2023-05-07T00:08:07;15.80;99.90
2967;DHT22;1493;51.496;7.210;2023-05-07T00:10:36;15.80;99.90
2967;DHT22;1493;51.496;7.210;2023-05-07T00:13:02;15.80;99.90
2967;DHT22;1493;51.496;7.210;2023-05-07T00:15:29;15.80;99.90
2967;DHT22;1493;51.496;7.210;2023-05-07T00:17:56;15.80;99.90
2967;DHT22;1493;51.496;7.210;2023-05-07T00:20:25;15.80;99.90
2967;DHT22;1493;51.496;7.210;2023-05-07T00:22:51;15.80;99.90
2967;DHT22;1493;51.496;7.210;2023-05-07T00:25:18;15.80;99.90
2967;DHT22;1493;51.496;7.210;2023-05-07T00:27:47;15.80;99.90
2967;DHT22;1493;51.496;7.210;2023-05-07T00:30:14;15.80;99.90
2967;DHT22;1493;51.496;7.210;2023-05-07T00:32:40;15.80;99.90
2967;DHT22;1493;51.496;7.210;2023-05-07T00:35:08;15.80;99.90
2967;DHT22;1493;51.496;7.210;2023-05-07T00:37:35;15.80;99.90
2967;DHT22;1493;51.496;7.210;2023-05-07T00:40:02;15.70;99.90
2967;DHT22;1493;51.496;7.210;2023-05-07T00:42:32;15.70;99.90
2967;DHT22;1493;51.496;7.210;2023-05-07T00:45:00;15.70;99.90
2967;DHT22;1493;51.496;7.210;2023-05-07T00:47:28;15.80;99.90
2967;DHT22;1493;51.496;7.210;2023-05-07T00:49:55;15.80;99.90
2967;DHT22;1493;51.496;7.210;2023-05-07T00:52:25;15.80;99.90
2967;DHT22;1493;51.496;7.210;2023-05-07T00:54:52;15.80;99.90
2967;DHT22;1493;51.496;7.210;2023-05-07T00:57:21;15.70;99.90
2967;DHT22;1493;51.496;7.210;2023-05-07T00:59:48;15.70;99.90
2967;DHT22;1493;51.496;7.210;2023-05-07T01:02:16;15.70;99.90
2967;DHT22;1493;51.496;7.210;2023-05-07T01:04:43;15.70;99.90
2967;DHT22;1493;51.496;7.210;2023-05-07T01:07:11;15.60;99.90
2967;DHT22;1493;51.496;7.210;2023-05-07T01:09:37;15.60;99.90
2967;DHT22;1493;51.496;7.210;2023-05-07T01:12:05;15.60;99.90
2967;DHT22;1493;51.496;7.210;2023-05-07T01:14:33;15.60;99.90
2967;DHT22;1493;51.496;7.210;2023-05-07T01:17:00;15.60;99.90
2967;DHT22;1493;51.496;7.210;2023-05-07T01:19:29;15.60;99.90
2967;DHT22;1493;51.496;7.210;2023-05-07T01:22:02;15.60;99.90
2967;DHT22;1493;51.496;7.210;2023-05-07T01:24:31;15.50;99.90
2967;DHT22;1493;51.496;7.210;2023-05-07T01:26:58;15.50;99.90
2967;DHT22;1493;51.496;7.210;2023-05-07T01:29:26;15.50;99.90
2967;DHT22;1493;51.496;7.210;2023-05-07T01:31:54;15.60;99.90
2967;DHT22;1493;51.496;7.210;2023-05-07T01:34:21;15.60;99.90
2967;DHT22;1493;51.496;7.210;2023-05-07T01:36:49;15.50;99.90
2967;DHT22;1493;51.496;7.210;2023-05-07T01:39:16;15.50;99.90
2967;DHT22;1493;51.496;7.210;2023-05-07T01:41:45;15.50;99.90
2967;DHT22;1493;51.496;7.210;2023-05-07T01:44:13;15.50;99.90
2967;DHT22;1493;51.496;7.210;2023-05-07T01:46:40;15.50;99.90
2967;DHT22;1493;51.496;7.210;2023-05-07T01:49:07;15.50;99.90
2967;DHT22;1493;51.496;7.210;2023-05-07T01:51:34;15.50;99.90
2967;DHT22;1493;51.496;7.210;2023-05-07T01:54:01;15.60;99.90
2967;DHT22;1493;51.496;7.210;2023-05-07T01:56:28;15.50;99.90
2967;DHT22;1493;51.496;7.210;2023-05-07T01:58:57;15.60;99.90
2967;DHT22;1493;51.496;7.210;2023-05-07T02:01:23;15.60;99.90
2967;DHT22;1493;51.496;7.210;2023-05-07T02:03:50;15.60;99.90
2967;DHT22;1493;51.496;7.210;2023-05-07T02:06:17;15.50;99.90
2967;DHT22;1493;51.496;7.210;2023-05-07T02:08:44;15.50;99.90
2967;DHT22;1493;51.496;7.210;2023-05-07T02:11:11;15.50;99.90
2967;DHT22;1493;51.496;7.210;2023-05-07T02:13:38;15.50;99.90
2967;DHT22;1493;51.496;7.210;2023-05-07T02:16:07;15.40;99.90
2967;DHT22;1493;51.496;7.210;2023-05-07T02:18:34;15.30;99.90
2967;DHT22;1493;51.496;7.210;2023-05-07T02:21:01;15.40;99.90
2967;DHT22;1493;51.496;7.210;2023-05-07T02:23:27;15.30;99.90
2967;DHT22;1493;51.496;7.210;2023-05-07T02:25:54;15.30;99.90
2967;DHT22;1493;51.496;7.210;2023-05-07T02:28:21;15.40;99.90
2967;DHT22;1493;51.496;7.210;2023-05-07T02:30:48;15.30;99.90
2967;DHT22;1493;51.496;7.210;2023-05-07T02:33:16;15.30;99.90
2967;DHT22;1493;51.496;7.210;2023-05-07T02:35:43;15.30;99.90
2967;DHT22;1493;51.496;7.210;2023-05-07T02:38:09;15.30;99.90
2967;DHT22;1493;51.496;7.210;2023-05-07T02:40:36;15.30;99.90
2967;DHT22;1493;51.496;7.210;2023-05-07T02:43:05;15.30;99.90
2967;DHT22;1493;51.496;7.210;2023-05-07T02:45:31;15.30;99.90
2967;DHT22;1493;51.496;7.210;2023-05-07T02:47:58;15.20;99.90
2967;DHT22;1493;51.496;7.210;2023-05-07T02:50:27;15.20;99.90
2967;DHT22;1493;51.496;7.210;2023-05-07T02:52:53;15.20;99.90
2967;DHT22;1493;51.496;7.210;2023-05-07T02:55:21;15.20;99.90
2967;DHT22;1493;51.496;7.210;2023-05-07T02:57:47;15.20;99.90
2967;DHT22;1493;51.496;7.210;2023-05-07T03:00:15;15.20;99.90
2967;DHT22;1493;51.496;7.210;2023-05-07T03:02:43;15.10;99.90
2967;DHT22;1493;51.496;7.210;2023-05-07T03:05:10;15.10;99.90
2967;DHT22;1493;51.496;7.210;2023-05-07T03:07:38;15.10;99.90
2967;DHT22;1493;51.496;7.210;2023-05-07T03:10:06;15.10;99.90
2967;DHT22;1493;51.496;7.210;2023-05-07T03:12:34;15.00;99.90
2967;DHT22;1493;51.496;7.210;2023-05-07T03:15:01;15.00;99.90
2967;DHT22;1493;51.496;7.210;2023-05-07T03:17:28;15.00;99.90
2967;DHT22;1493;51.496;7.210;2023-05-07T03:19:54;15.00;99.90
2967;DHT22;1493;51.496;7.210;2023-05-07T03:22:21;15.00;99.90
2967;DHT22;1493;51.496;7.210;2023-05-07T03:24:49;15.00;99.90
2967;DHT22;1493;51.496;7.210;2023-05-07T03:27:16;14.90;99.90
2967;DHT22;1493;51.496;7.210;2023-05-07T03:29:43;15.00;99.90
2967;DHT22;1493;51.496;7.210;2023-05-07T03:32:10;15.00;99.90
2967;DHT22;1493;51.496;7.210;2023-05-07T03:34:37;14.90;99.90
2967;DHT22;1493;51.496;7.210;2023-05-07T03:37:03;15.00;99.90
2967;DHT22;1493;51.496;7.210;2023-05-07T03:39:30;15.00;99.90
2967;DHT22;1493;51.496;7.210;2023-05-07T03:41:58;14.90;99.90
2967;DHT22;1493;51.496;7.210;2023-05-07T03:44:26;14.90;99.90
2967;DHT22;1493;51.496;7.210;2023-05-07T03:46:53;14.90;99.90
2967;DHT22;1493;51.496;7.210;2023-05-07T03:49:19;14.90;99.90
2967;DHT22;1493;51.496;7.210;2023-05-07T03:51:46;14.90;99.90
2967;DHT22;1493;51.496;7.210;2023-05-07T03:54:13;14.90;99.90
2967;DHT22;1493;51.496;7.210;2023-05-07T03:56:40;14.80;99.90
2967;DHT22;1493;51.496;7.210;2023-05-07T03:59:08;14.80;99.90
2967;DHT22;1493;51.496;7.210;2023-05-07T04:01:35;14.70;99.90
2967;DHT22;1493;51.496;7.210;2023-05-07T04:04:01;14.80;99.90
2967;DHT22;1493;51.496;7.210;2023-05-07T04:06:29;14.80;99.90
2967;DHT22;1493;51.496;7.210;2023-05-07T04:08:56;14.80;99.90
2967;DHT22;1493;51.496;7.210;2023-05-07T04:11:23;14.70;99.90
2967;DHT22;1493;51.496;7.210;2023-05-07T04:13:50;14.80;99.90
2967;DHT22;1493;51.496;7.210;2023-05-07T04:16:18;14.80;99.90
2967;DHT22;1493;51.496;7.210;2023-05-07T04:18:45;14.80;99.90
2967;DHT22;1493;51.496;7.210;2023-05-07T04:21:15;14.80;99.90
2967;DHT22;1493;51.496;7.210;2023-05-07T04:23:42;14.80;99.90
2967;DHT22;1493;51.496;7.210;2023-05-07T04:26:09;14.80;99.90
2967;DHT22;1493;51.496;7.210;2023-05-07T04:28:36;14.80;99.90
2967;DHT22;1493;51.496;7.210;2023-05-07T04:31:03;14.80;99.90
2967;DHT22;1493;51.496;7.210;2023-05-07T04:33:32;14.80;99.90
2967;DHT22;1493;51.496;7.210;2023-05-07T04:35:59;14.80;99.90
2967;DHT22;1493;51.496;7.210;2023-05-07T04:38:28;14.90;99.90
2967;DHT22;1493;51.496;7.210;2023-05-07T04:40:55;14.90;99.90
2967;DHT22;1493;51.496;7.210;2023-05-07T04:43:22;15.00;99.90
2967;DHT22;1493;51.496;7.210;2023-05-07T04:45:50;15.00;99.90
2967;DHT22;1493;51.496;7.210;2023-05-07T04:48:17;15.00;99.90
2967;DHT22;1493;51.496;7.210;2023-05-07T04:50:47;15.10;99.90
2967;DHT22;1493;51.496;7.210;2023-05-07T04:53:14;15.20;99.90
2967;DHT22;1493;51.496;7.210;2023-05-07T04:55:41;15.30;99.90
2967;DHT22;1493;51.496;7.210;2023-05-07T04:58:08;15.30;99.90
2967;DHT22;1493;51.496;7.210;2023-05-07T05:00:35;15.30;99.90
2967;DHT22;1493;51.496;7.210;2023-05-07T05:03:02;15.30;99.90
2967;DHT22;1493;51.496;7.210;2023-05-07T05:05:28;15.50;99.90
2967;DHT22;1493;51.496;7.210;2023-05-07T05:07:57;15.60;99.90
2967;DHT22;1493;51.496;7.210;2023-05-07T05:10:23;15.60;99.90
2967;DHT22;1493;51.496;7.210;2023-05-07T05:12:50;15.60;99.90
2967;DHT22;1493;51.496;7.210;2023-05-07T05:15:17;15.70;99.90
2967;DHT22;1493;51.496;7.210;2023-05-07T05:17:44;15.80;99.90
2967;DHT22;1493;51.496;7.210;2023-05-07T05:20:11;15.80;99.90
2967;DHT22;1493;51.496;7.210;2023-05-07T05:22:38;15.90;99.90
2967;DHT22;1493;51.496;7.210;2023-05-07T05:25:07;15.90;99.90
2967;DHT22;1493;51.496;7.210;2023-05-07T05:27:34;16.00;99.90
2967;DHT22;1493;51.496;7.210;2023-05-07T05:30:01;16.10;99.90
2967;DHT22;1493;51.496;7.210;2023-05-07T05:32:28;16.20;99.90
2967;DHT22;1493;51.496;7.210;2023-05-07T05:34:55;16.30;99.90
2967;DHT22;1493;51.496;7.210;2023-05-07T05:37:22;16.30;99.90
2967;DHT22;1493;51.496;7.210;2023-05-07T05:39:49;16.30;99.90
2967;DHT22;1493;51.496;7.210;2023-05-07T05:42:17;16.40;99.90
2967;DHT22;1493;51.496;7.210;2023-05-07T05:44:44;16.50;99.90
2967;DHT22;1493;51.496;7.210;2023-05-07T05:47:10;16.50;99.90
2967;DHT22;1493;51.496;7.210;2023-05-07T05:49:37;16.50;99.90
2967;DHT22;1493;51.496;7.210;2023-05-07T05:52:04;16.50;99.90
2967;DHT22;1493;51.496;7.210;2023-05-07T05:54:31;16.50;99.90
2967;DHT22;1493;51.496;7.210;2023-05-07T05:56:58;16.50;99.90
2967;DHT22;1493;51.496;7.210;2023-05-07T05:59:26;16.50;99.90
2967;DHT22;1493;51.496;7.210;2023-05-07T06:01:53;16.70;99.90
2967;DHT22;1493;51.496;7.210;2023-05-07T06:04:19;16.80;99.90
2967;DHT22;1493;51.496;7.210;2023-05-07T06:06:46;16.90;99.90
2967;DHT22;1493;51.496;7.210;2023-05-07T06:09:13;17.10;99.90
2967;DHT22;1493;51.496;7.210;2023-05-07T06:11:40;17.20;99.90
2967;DHT22;1493;51.496;7.210;2023-05-07T06:14:07;17.30;99.90
2967;DHT22;1493;51.496;7.210;2023-05-07T06:16:35;17.60;99.90
2967;DHT22;1493;51.496;7.210;2023-05-07T06:19:03;17.70;99.90
2967;DHT22;1493;51.496;7.210;2023-05-07T06:21:30;17.80;52.30
2967;DHT22;1493;51.496;7.210;2023-05-07T06:23:57;18.00;14.10
2967;DHT22;1493;51.496;7.210;2023-05-07T06:26:24;18.00;32.60
2967;DHT22;1493;51.496;7.210;2023-05-07T06:28:50;18.10;23.40
2967;DHT22;1493;51.496;7.210;2023-05-07T06:31:18;18.20;26.30
2967;DHT22;1493;51.496;7.210;2023-05-07T06:33:48;18.30;9.20
2967;DHT22;1493;51.496;7.210;2023-05-07T06:36:15;18.30;6.00
2967;DHT22;1493;51.496;7.210;2023-05-07T06:38:42;18.30;1.00
2967;DHT22;1493;51.496;7.210;2023-05-07T06:41:09;18.40;1.00
2967;DHT22;1493;51.496;7.210;2023-05-07T06:43:36;18.60;1.00
2967;DHT22;1493;51.496;7.210;2023-05-07T06:46:02;18.80;1.00
2967;DHT22;1493;51.496;7.210;2023-05-07T06:48:29;18.90;1.00
2967;DHT22;1493;51.496;7.210;2023-05-07T06:50:57;19.00;1.00
2967;DHT22;1493;51.496;7.210;2023-05-07T06:53:25;19.20;1.00
2967;DHT22;1493;51.496;7.210;2023-05-07T06:55:52;19.10;1.00
2967;DHT22;1493;51.496;7.210;2023-05-07T06:58:19;19.10;1.00
2967;DHT22;1493;51.496;7.210;2023-05-07T07:00:46;19.10;1.00
2967;DHT22;1493;51.496;7.210;2023-05-07T07:03:13;19.20;1.00
2967;DHT22;1493;51.496;7.210;2023-05-07T07:05:40;19.30;1.00
2967;DHT22;1493;51.496;7.210;2023-05-07T07:08:09;19.40;1.00
2967;DHT22;1493;51.496;7.210;2023-05-07T07:10:36;19.40;1.00
2967;DHT22;1493;51.496;7.210;2023-05-07T07:13:03;19.50;1.00
2967;DHT22;1493;51.496;7.210;2023-05-07T07:15:30;19.50;1.00
2967;DHT22;1493;51.496;7.210;2023-05-07T07:17:56;19.70;1.00
2967;DHT22;1493;51.496;7.210;2023-05-07T07:20:23;19.80;1.00
2967;DHT22;1493;51.496;7.210;2023-05-07T07:22:50;19.90;1.00
2967;DHT22;1493;51.496;7.210;2023-05-07T07:25:18;19.80;1.00
2967;DHT22;1493;51.496;7.210;2023-05-07T07:27:45;19.90;1.00
2967;DHT22;1493;51.496;7.210;2023-05-07T07:30:12;20.10;1.00
2967;DHT22;1493;51.496;7.210;2023-05-07T07:32:39;20.20;1.00
2967;DHT22;1493;51.496;7.210;2023-05-07T07:35:06;20.40;99.90
2967;DHT22;1493;51.496;7.210;2023-05-07T07:37:33;20.10;99.90
2967;DHT22;1493;51.496;7.210;2023-05-07T07:40:00;20.30;99.90
2967;DHT22;1493;51.496;7.210;2023-05-07T07:42:28;20.20;99.90
2967;DHT22;1493;51.496;7.210;2023-05-07T07:44:55;20.10;99.90
2967;DHT22;1493;51.496;7.210;2023-05-07T07:47:23;20.10;1.00
2967;DHT22;1493;51.496;7.210;2023-05-07T07:49:49;20.20;99.90
2967;DHT22;1493;51.496;7.210;2023-05-07T07:52:16;20.30;1.00
2967;DHT22;1493;51.496;7.210;2023-05-07T07:54:44;20.60;99.90
2967;DHT22;1493;51.496;7.210;2023-05-07T07:57:10;20.80;99.90
2967;DHT22;1493;51.496;7.210;2023-05-07T07:59:38;20.80;99.90
2967;DHT22;1493;51.496;7.210;2023-05-07T08:02:10;21.40;99.90
2967;DHT22;1493;51.496;7.210;2023-05-07T08:04:37;21.60;99.90
2967;DHT22;1493;51.496;7.210;2023-05-07T08:07:04;21.60;61.20
2967;DHT22;1493;51.496;7.210;2023-05-07T08:09:31;21.40;56.20
2967;DHT22;1493;51.496;7.210;2023-05-07T08:11:58;21.20;99.90
2967;DHT22;1493;51.496;7.210;2023-05-07T08:14:25;21.00;99.90
2967;DHT22;1493;51.496;7.210;2023-05-07T08:16:53;21.00;99.90
2967;DHT22;1493;51.496;7.210;2023-05-07T08:19:20;20.90;99.90
2967;DHT22;1493;51.496;7.210;2023-05-07T08:21:47;20.60;99.90
2967;DHT22;1493;51.496;7.210;2023-05-07T08:24:14;20.80;99.90
2967;DHT22;1493;51.496;7.210;2023-05-07T08:26:41;21.00;99.90
2967;DHT22;1493;51.496;7.210;2023-05-07T08:29:08;20.90;99.90
2967;DHT22;1493;51.496;7.210;2023-05-07T08:31:35;21.10;99.90
2967;DHT22;1493;51.496;7.210;2023-05-07T08:34:03;21.30;99.90
2967;DHT22;1493;51.496;7.210;2023-05-07T08:36:30;21.50;1.00
2967;DHT22;1493;51.496;7.210;2023-05-07T08:38:57;21.60;92.20
2967;DHT22;1493;51.496;7.210;2023-05-07T08:41:24;22.10;1.00
2967;DHT22;1493;51.496;7.210;2023-05-07T08:43:51;22.50;99.90
2967;DHT22;1493;51.496;7.210;2023-05-07T08:46:19;22.40;1.00
2967;DHT22;1493;51.496;7.210;2023-05-07T08:48:48;22.70;45.80
2967;DHT22;1493;51.496;7.210;2023-05-07T08:51:18;23.10;1.00
2967;DHT22;1493;51.496;7.210;2023-05-07T08:53:46;23.70;1.00
2967;DHT22;1493;51.496;7.210;2023-05-07T08:56:15;24.20;1.00
2967;DHT22;1493;51.496;7.210;2023-05-07T08:58:42;24.60;1.00
2967;DHT22;1493;51.496;7.210;2023-05-07T09:01:13;24.90;99.90
2967;DHT22;1493;51.496;7.210;2023-05-07T09:03:40;25.20;99.90
2967;DHT22;1493;51.496;7.210;2023-05-07T09:06:08;24.70;99.90
2967;DHT22;1493;51.496;7.210;2023-05-07T09:08:37;24.80;33.20
2967;DHT22;1493;51.496;7.210;2023-05-07T09:11:04;24.50;99.90
2967;DHT22;1493;51.496;7.210;2023-05-07T09:13:31;24.20;80.00
2967;DHT22;1493;51.496;7.210;2023-05-07T09:15:58;24.10;99.90
2967;DHT22;1493;51.496;7.210;2023-05-07T09:18:24;23.90;99.90
2967;DHT22;1493;51.496;7.210;2023-05-07T09:20:51;23.70;99.90
2967;DHT22;1493;51.496;7.210;2023-05-07T09:23:18;23.70;99.90
2967;DHT22;1493;51.496;7.210;2023-05-07T09:25:46;23.80;1.00
2967;DHT22;1493;51.496;7.210;2023-05-07T09:28:13;25.20;99.90
2967;DHT22;1493;51.496;7.210;2023-05-07T09:30:40;25.80;1.00
2967;DHT22;1493;51.496;7.210;2023-05-07T09:33:07;26.00;1.00
2967;DHT22;1493;51.496;7.210;2023-05-07T09:35:34;27.00;1.00
2967;DHT22;1493;51.496;7.210;2023-05-07T09:38:01;27.80;1.00
2967;DHT22;1493;51.496;7.210;2023-05-07T09:40:30;28.30;1.00
2967;DHT22;1493;51.496;7.210;2023-05-07T09:43:09;28.40;1.00
2967;DHT22;1493;51.496;7.210;2023-05-07T09:45:36;29.70;1.00
2967;DHT22;1493;51.496;7.210;2023-05-07T09:48:05;29.90;1.00
2967;DHT22;1493;51.496;7.210;2023-05-07T09:50:36;30.00;1.00
2967;DHT22;1493;51.496;7.210;2023-05-07T09:53:04;29.60;1.00
2967;DHT22;1493;51.496;7.210;2023-05-07T09:55:31;29.30;1.00
2967;DHT22;1493;51.496;7.210;2023-05-07T09:57:59;29.30;1.00
2967;DHT22;1493;51.496;7.210;2023-05-07T10:00:29;29.00;1.00
2967;DHT22;1493;51.496;7.210;2023-05-07T10:02:57;29.60;1.00
2967;DHT22;1493;51.496;7.210;2023-05-07T10:05:25;29.60;1.00
2967;DHT22;1493;51.496;7.210;2023-05-07T10:07:54;29.30;1.00
2967;DHT22;1493;51.496;7.210;2023-05-07T10:10:24;29.10;99.90
2967;DHT22;1493;51.496;7.210;2023-05-07T10:12:51;29.20;99.90
2967;DHT22;1493;51.496;7.210;2023-05-07T10:15:20;29.20;99.90
2967;DHT22;1493;51.496;7.210;2023-05-07T10:17:48;29.20;99.90
2967;DHT22;1493;51.496;7.210;2023-05-07T10:20:15;29.30;99.90
2967;DHT22;1493;51.496;7.210;2023-05-07T10:22:44;29.90;99.90
2967;DHT22;1493;51.496;7.210;2023-05-07T10:25:16;30.10;99.90
2967;DHT22;1493;51.496;7.210;2023-05-07T10:27:46;30.40;99.90
2967;DHT22;1493;51.496;7.210;2023-05-07T10:30:25;31.00;99.90
2967;DHT22;1493;51.496;7.210;2023-05-07T10:32:55;32.30;99.90
2967;DHT22;1493;51.496;7.210;2023-05-07T10:35:26;33.10;99.90
2967;DHT22;1493;51.496;7.210;2023-05-07T10:37:55;33.80;99.90
2967;DHT22;1493;51.496;7.210;2023-05-07T10:40:22;33.00;99.90
2967;DHT22;1493;51.496;7.210;2023-05-07T10:42:57;31.90;99.90
2967;DHT22;1493;51.496;7.210;2023-05-07T10:45:27;30.40;99.90
2967;DHT22;1493;51.496;7.210;2023-05-07T10:48:07;29.50;99.90
2967;DHT22;1493;51.496;7.210;2023-05-07T10:50:34;28.70;99.90
2967;DHT22;1493;51.496;7.210;2023-05-07T10:53:20;28.80;99.90
2967;DHT22;1493;51.496;7.210;2023-05-07T10:55:50;28.00;99.90
2967;DHT22;1493;51.496;7.210;2023-05-07T10:58:24;28.20;99.90
2967;DHT22;1493;51.496;7.210;2023-05-07T11:00:56;28.40;99.90
2967;DHT22;1493;51.496;7.210;2023-05-07T11:03:23;28.60;99.90
2967;DHT22;1493;51.496;7.210;2023-05-07T11:06:09;30.10;99.90
2967;DHT22;1493;51.496;7.210;2023-05-07T11:08:55;32.80;99.90
2967;DHT22;1493;51.496;7.210;2023-05-07T11:11:44;33.50;99.90
2967;DHT22;1493;51.496;7.210;2023-05-07T11:14:11;32.70;99.90
2967;DHT22;1493;51.496;7.210;2023-05-07T11:16:41;32.10;99.90
2967;DHT22;1493;51.496;7.210;2023-05-07T11:19:09;32.00;99.90
2967;DHT22;1493;51.496;7.210;2023-05-07T11:21:37;32.30;99.90
2967;DHT22;1493;51.496;7.210;2023-05-07T11:24:05;31.10;99.90
2967;DHT22;1493;51.496;7.210;2023-05-07T11:26:43;31.20;99.90
2967;DHT22;1493;51.496;7.210;2023-05-07T11:29:16;31.10;99.90
2967;DHT22;1493;51.496;7.210;2023-05-07T11:31:48;31.30;99.90
2967;DHT22;1493;51.496;7.210;2023-05-07T11:34:21;32.00;99.90
2967;DHT22;1493;51.496;7.210;2023-05-07T11:36:48;32.20;99.90
2967;DHT22;1493;51.496;7.210;2023-05-07T11:39:29;32.00;99.90
2967;DHT22;1493;51.496;7.210;2023-05-07T11:41:57;31.50;99.90
2967;DHT22;1493;51.496;7.210;2023-05-07T11:44:24;30.10;99.90
2967;DHT22;1493;51.496;7.210;2023-05-07T11:46:52;30.10;99.90
2967;DHT22;1493;51.496;7.210;2023-05-07T11:49:19;30.20;99.90
2967;DHT22;1493;51.496;7.210;2023-05-07T11:51:46;30.40;99.90
2967;DHT22;1493;51.496;7.210;2023-05-07T11:54:18;31.90;99.90
2967;DHT22;1493;51.496;7.210;2023-05-07T11:56:45;33.80;99.90
2967;DHT22;1493;51.496;7.210;2023-05-07T11:59:17;33.10;99.90
2967;DHT22;1493;51.496;7.210;2023-05-07T12:01:46;32.40;99.90
2967;DHT22;1493;51.496;7.210;2023-05-07T12:04:19;31.90;99.90
2967;DHT22;1493;51.496;7.210;2023-05-07T12:06:46;32.40;99.90
2967;DHT22;1493;51.496;7.210;2023-05-07T12:09:13;32.10;99.90
2967;DHT22;1493;51.496;7.210;2023-05-07T12:11:40;32.40;99.90
2967;DHT22;1493;51.496;7.210;2023-05-07T12:14:12;31.80;99.90
2967;DHT22;1493;51.496;7.210;2023-05-07T12:16:39;31.60;99.90
2967;DHT22;1493;51.496;7.210;2023-05-07T12:19:10;32.10;99.90
2967;DHT22;1493;51.496;7.210;2023-05-07T12:21:39;32.80;99.90
2967;DHT22;1493;51.496;7.210;2023-05-07T12:24:08;32.90;99.90
2967;DHT22;1493;51.496;7.210;2023-05-07T12:26:37;32.70;99.90
2967;DHT22;1493;51.496;7.210;2023-05-07T12:29:07;32.80;99.90
2967;DHT22;1493;51.496;7.210;2023-05-07T12:31:34;32.50;99.90
2967;DHT22;1493;51.496;7.210;2023-05-07T12:34:02;31.40;99.90
2967;DHT22;1493;51.496;7.210;2023-05-07T12:36:36;30.90;99.90
2967;DHT22;1493;51.496;7.210;2023-05-07T12:39:05;30.20;99.90
2967;DHT22;1493;51.496;7.210;2023-05-07T12:41:36;29.30;99.90
2967;DHT22;1493;51.496;7.210;2023-05-07T12:44:04;28.60;99.90
2967;DHT22;1493;51.496;7.210;2023-05-07T12:46:31;28.00;99.90
2967;DHT22;1493;51.496;7.210;2023-05-07T12:48:58;27.40;99.90
2967;DHT22;1493;51.496;7.210;2023-05-07T12:51:25;26.90;99.90
2967;DHT22;1493;51.496;7.210;2023-05-07T12:53:56;26.40;99.90
2967;DHT22;1493;51.496;7.210;2023-05-07T12:56:24;25.90;99.90
2967;DHT22;1493;51.496;7.210;2023-05-07T12:58:50;25.20;99.90
2967;DHT22;1493;51.496;7.210;2023-05-07T13:01:17;24.80;99.90
2967;DHT22;1493;51.496;7.210;2023-05-07T13:03:48;24.80;99.90
2967;DHT22;1493;51.496;7.210;2023-05-07T13:06:15;24.80;99.90
2967;DHT22;1493;51.496;7.210;2023-05-07T13:08:42;24.40;99.90
2967;DHT22;1493;51.496;7.210;2023-05-07T13:11:10;24.10;99.90
2967;DHT22;1493;51.496;7.210;2023-05-07T13:13:40;23.90;1.00
2967;DHT22;1493;51.496;7.210;2023-05-07T13:16:09;23.70;1.00
2967;DHT22;1493;51.496;7.210;2023-05-07T13:18:37;23.60;1.00
2967;DHT22;1493;51.496;7.210;2023-05-07T13:21:04;23.30;1.00
2967;DHT22;1493;51.496;7.210;2023-05-07T13:23:31;23.30;1.00
2967;DHT22;1493;51.496;7.210;2023-05-07T13:25:58;23.20;99.90
2967;DHT22;1493;51.496;7.210;2023-05-07T13:28:25;23.20;10.60
2967;DHT22;1493;51.496;7.210;2023-05-07T13:30:53;23.30;92.70
2967;DHT22;1493;51.496;7.210;2023-05-07T13:33:20;23.40;1.00
2967;DHT22;1493;51.496;7.210;2023-05-07T13:35:47;23.40;1.00
2967;DHT22;1493;51.496;7.210;2023-05-07T13:38:14;23.30;1.00
2967;DHT22;1493;51.496;7.210;2023-05-07T13:40:41;23.20;1.00
2967;DHT22;1493;51.496;7.210;2023-05-07T13:43:08;23.10;1.00
2967;DHT22;1493;51.496;7.210;2023-05-07T13:45:35;22.90;1.00
2967;DHT22;1493;51.496;7.210;2023-05-07T13:48:04;22.80;1.00
2967;DHT22;1493;51.496;7.210;2023-05-07T13:50:31;22.80;1.00
2967;DHT22;1493;51.496;7.210;2023-05-07T13:52:58;22.80;1.00
2967;DHT22;1493;51.496;7.210;2023-05-07T13:55:25;22.80;1.00
2967;DHT22;1493;51.496;7.210;2023-05-07T13:57:55;22.70;1.00
2967;DHT22;1493;51.496;7.210;2023-05-07T14:00:24;22.50;1.00
2967;DHT22;1493;51.496;7.210;2023-05-07T14:02:51;22.60;1.00
2967;DHT22;1493;51.496;7.210;2023-05-07T14:05:20;22.60;1.00
2967;DHT22;1493;51.496;7.210;2023-05-07T14:07:48;22.50;1.00
2967;DHT22;1493;51.496;7.210;2023-05-07T14:10:17;22.60;1.00
2967;DHT22;1493;51.496;7.210;2023-05-07T14:12:45;22.70;1.00
2967;DHT22;1493;51.496;7.210;2023-05-07T14:15:12;22.70;1.00
2967;DHT22;1493;51.496;7.210;2023-05-07T14:17:39;22.90;1.00
2967;DHT22;1493;51.496;7.210;2023-05-07T14:20:07;23.10;1.00
2967;DHT22;1493;51.496;7.210;2023-05-07T14:22:37;23.10;1.00
2967;DHT22;1493;51.496;7.210;2023-05-07T14:25:05;23.20;1.00
2967;DHT22;1493;51.496;7.210;2023-05-07T14:27:32;23.30;1.00
2967;DHT22;1493;51.496;7.210;2023-05-07T14:29:59;23.30;1.00
2967;DHT22;1493;51.496;7.210;2023-05-07T14:32:26;23.20;1.00
2967;DHT22;1493;51.496;7.210;2023-05-07T14:34:52;23.30;1.00
2967;DHT22;1493;51.496;7.210;2023-05-07T14:37:21;23.30;1.00
2967;DHT22;1493;51.496;7.210;2023-05-07T14:39:49;23.40;1.00
2967;DHT22;1493;51.496;7.210;2023-05-07T14:42:16;23.40;1.00
2967;DHT22;1493;51.496;7.210;2023-05-07T14:44:42;23.40;1.00
2967;DHT22;1493;51.496;7.210;2023-05-07T14:47:11;23.50;1.00
2967;DHT22;1493;51.496;7.210;2023-05-07T14:49:38;23.50;1.00
2967;DHT22;1493;51.496;7.210;2023-05-07T14:52:04;23.50;1.00
2967;DHT22;1493;51.496;7.210;2023-05-07T14:54:33;23.50;1.00
2967;DHT22;1493;51.496;7.210;2023-05-07T14:57:04;23.40;1.00
2967;DHT22;1493;51.496;7.210;2023-05-07T14:59:32;23.30;1.00
2967;DHT22;1493;51.496;7.210;2023-05-07T15:02:00;23.10;1.00
2967;DHT22;1493;51.496;7.210;2023-05-07T15:04:42;23.10;1.00
2967;DHT22;1493;51.496;7.210;2023-05-07T15:07:41;23.00;1.00
2967;DHT22;1493;51.496;7.210;2023-05-07T15:10:49;22.90;1.00
2967;DHT22;1493;51.496;7.210;2023-05-07T15:13:19;22.80;1.00
2967;DHT22;1493;51.496;7.210;2023-05-07T15:15:46;22.70;1.00
2967;DHT22;1493;51.496;7.210;2023-05-07T15:18:16;22.70;1.00
2967;DHT22;1493;51.496;7.210;2023-05-07T15:20:45;22.70;1.00
2967;DHT22;1493;51.496;7.210;2023-05-07T15:23:12;22.80;25.90
2967;DHT22;1493;51.496;7.210;2023-05-07T15:25:41;22.70;43.30
2967;DHT22;1493;51.496;7.210;2023-05-07T15:28:09;22.70;79.70
2967;DHT22;1493;51.496;7.210;2023-05-07T15:30:37;22.60;35.40
2967;DHT22;1493;51.496;7.210;2023-05-07T15:33:04;22.50;99.90
2967;DHT22;1493;51.496;7.210;2023-05-07T15:35:31;22.60;99.90
2967;DHT22;1493;51.496;7.210;2023-05-07T15:37:58;22.70;99.90
2967;DHT22;1493;51.496;7.210;2023-05-07T15:40:29;22.70;99.90
2967;DHT22;1493;51.496;7.210;2023-05-07T15:42:56;22.80;99.90
2967;DHT22;1493;51.496;7.210;2023-05-07T15:45:23;22.80;99.90
2967;DHT22;1493;51.496;7.210;2023-05-07T15:48:00;22.90;99.90
2967;DHT22;1493;51.496;7.210;2023-05-07T15:50:28;22.60;99.90
2967;DHT22;1493;51.496;7.210;2023-05-07T15:52:57;22.80;1.00
2967;DHT22;1493;51.496;7.210;2023-05-07T15:55:25;22.90;99.90
2967;DHT22;1493;51.496;7.210;2023-05-07T15:57:54;22.70;99.90
2967;DHT22;1493;51.496;7.210;2023-05-07T16:00:26;22.80;99.90
2967;DHT22;1493;51.496;7.210;2023-05-07T16:03:01;22.80;1.00
2967;DHT22;1493;51.496;7.210;2023-05-07T16:05:29;22.70;1.00
2967;DHT22;1493;51.496;7.210;2023-05-07T16:07:56;22.70;1.00
2967;DHT22;1493;51.496;7.210;2023-05-07T16:10:24;22.60;1.00
2967;DHT22;1493;51.496;7.210;2023-05-07T16:12:53;22.40;99.90